Time;durP1;ratioP1;P1;durP2;ratioP2;P2;SDS_P1;SDS_P2;PMS_P1;PMS_P2;Temp;Humidity;BMP_temperature;BMP_pressure;BME280_temperature;BME280_humidity;BME280_pressure;Samples;Min_cycle;Max_cycle;Signal;HPM_P1;HPM_P2
2021/11/01 00:00:35;;;;;;;29.80;6.05;;;;;;;8.06;100.00;99729.63;5063891;28;20158;-64
2021/11/01 00:03:00;;;;;;;29.60;6.03;;;;;;;8.02;100.00;99744.53;5063422;28;20029;-65
2021/11/01 00:05:26;;;;;;;29.73;5.88;;;;;;;8.07;100.00;99740.16;5064960;28;20028;-65
2021/11/01 00:07:52;;;;;;;29.05;6.30;;;;;;;8.01;100.00;99742.81;5061751;28;20025;-65
2021/11/01 00:10:18;;;;;;;26.98;5.70;;;;;;;8.03;100.00;99730.50;5064663;28;20024;-65
2021/11/01 00:12:44;;;;;;;29.23;5.80;;;;;;;7.98;100.00;99733.16;5062333;28;20028;-69
2021/11/01 00:15:10;;;;;;;29.92;6.03;;;;;;;7.97;100.00;99731.41;5063005;28;20120;-69
2021/11/01 00:17:37;;;;;;;30.40;5.90;;;;;;;7.97;100.00;99736.66;5063476;28;20017;-69
2021/11/01 00:20:05;;;;;;;26.90;5.07;;;;;;;7.95;100.00;99733.16;5062916;28;20045;-69
2021/11/01 00:22:33;;;;;;;28.13;5.30;;;;;;;7.90;100.00;99742.81;5063886;28;20030;-69
2021/11/01 00:24:58;;;;;;;25.73;5.25;;;;;;;7.93;100.00;99740.16;5062464;28;20025;-69
2021/11/01 00:27:23;;;;;;;29.75;5.32;;;;;;;7.90;100.00;99732.28;5064895;28;20486;-68
2021/11/01 00:29:49;;;;;;;31.20;5.95;;;;;;;7.88;100.00;99736.69;5061642;28;20033;-68
2021/11/01 00:32:15;;;;;;;27.73;6.00;;;;;;;7.88;100.00;99734.06;5064425;28;20484;-69
2021/11/01 00:34:41;;;;;;;29.50;5.60;;;;;;;7.91;100.00;99738.44;5062724;28;20451;-69
2021/11/01 00:37:07;;;;;;;27.15;5.63;;;;;;;7.88;100.00;99739.31;5063500;28;20025;-69
2021/11/01 00:39:33;;;;;;;27.10;5.50;;;;;;;7.79;100.00;99740.22;5063658;28;20047;-69
2021/11/01 00:41:58;;;;;;;29.65;5.53;;;;;;;7.74;100.00;99733.22;5061789;28;20036;-69
2021/11/01 00:44:23;;;;;;;26.95;5.60;;;;;;;7.74;100.00;99738.47;5065059;28;20063;-67
2021/11/01 00:46:49;;;;;;;25.90;5.45;;;;;;;7.71;100.00;99735.84;5059932;28;20061;-69
2021/11/01 00:49:14;;;;;;;28.00;5.40;;;;;;;7.75;100.00;99737.59;5064196;28;20029;-69
2021/11/01 00:51:42;;;;;;;26.60;5.20;;;;;;;7.70;100.00;99731.47;5062550;28;20020;-65
2021/11/01 00:54:08;;;;;;;25.85;5.07;;;;;;;7.72;100.00;99724.44;5063033;28;20475;-64
2021/11/01 00:56:35;;;;;;;24.90;5.32;;;;;;;7.69;100.00;99727.97;5063113;28;20040;-65
2021/11/01 00:59:01;;;;;;;24.95;5.10;;;;;;;7.67;100.00;99725.34;5062510;28;20035;-65
2021/11/01 01:01:26;;;;;;;29.20;5.38;;;;;;;7.74;100.00;99722.69;5063950;28;20021;-65
2021/11/01 01:03:52;;;;;;;28.65;5.38;;;;;;;7.65;100.00;99713.91;5061240;28;20025;-64
2021/11/01 01:06:18;;;;;;;28.00;5.30;;;;;;;7.66;100.00;99713.06;5064520;28;20037;-65
2021/11/01 01:08:43;;;;;;;28.88;5.55;;;;;;;7.61;100.00;99706.03;5061457;28;20037;-65
2021/11/01 01:11:09;;;;;;;26.65;5.88;;;;;;;7.57;100.00;99704.28;5063009;28;20020;-66
2021/11/01 01:13:38;;;;;;;28.13;5.75;;;;;;;7.56;100.00;99706.06;5062991;28;20028;-65
2021/11/01 01:16:24;;;;;;;25.58;5.05;;;;;;;7.51;100.00;99707.81;5062440;28;20061;-65
2021/11/01 01:18:52;;;;;;;33.00;6.07;;;;;;;7.58;100.00;99703.41;5060650;28;20088;-67
2021/11/01 01:24:04;;;;;;;29.23;5.75;;;;;;;7.54;100.00;99701.66;5062258;28;20087;-64
2021/11/01 01:26:29;;;;;;;28.85;6.18;;;;;;;7.53;100.00;99692.91;5063661;28;20552;-65
2021/11/01 01:28:56;;;;;;;27.40;5.50;;;;;;;7.62;100.00;99700.78;5060871;28;20029;-65
2021/11/01 01:31:22;;;;;;;27.80;5.65;;;;;;;7.60;100.00;99706.91;5064120;28;20555;-64
2021/11/01 01:33:47;;;;;;;26.48;5.88;;;;;;;7.59;100.00;99708.69;5061051;28;20044;-65
2021/11/01 01:36:12;;;;;;;28.67;5.80;;;;;;;7.58;100.00;99704.28;5062931;28;20029;-66
2021/11/01 01:38:39;;;;;;;29.35;5.82;;;;;;;7.51;100.00;99707.81;5060965;28;20051;-66
2021/11/01 01:41:15;;;;;;;24.95;5.68;;;;;;;7.52;100.00;99703.44;5064646;28;20032;-65
2021/11/01 01:43:49;;;;;;;27.35;5.25;;;;;;;7.49;100.00;99697.28;5061377;28;20111;-65
2021/11/01 01:46:16;;;;;;;25.83;5.50;;;;;;;7.48;100.00;99699.91;5062014;28;20030;-64
2021/11/01 01:48:42;;;;;;;27.90;5.32;;;;;;;7.43;100.00;99694.66;5062899;28;20025;-66
2021/11/01 01:51:09;;;;;;;24.58;5.03;;;;;;;7.55;100.00;99685.03;5061102;28;20021;-65
2021/11/01 01:53:35;;;;;;;26.45;4.93;;;;;;;7.59;100.00;99682.38;5063949;28;20028;-66
2021/11/01 01:56:01;;;;;;;27.63;5.28;;;;;;;7.55;100.00;99679.75;5060640;28;20025;-65
2021/11/01 01:58:30;;;;;;;25.63;5.30;;;;;;;7.55;100.00;99683.25;5063591;28;20486;-65
2021/11/01 02:01:17;;;;;;;24.45;5.10;;;;;;;7.52;100.00;99670.13;5059705;28;20037;-66
2021/11/01 02:03:47;;;;;;;26.48;5.40;;;;;;;7.48;100.00;99668.38;5061127;28;20041;-66
2021/11/01 02:06:17;;;;;;;28.70;5.60;;;;;;;7.52;100.00;99658.72;5062628;28;20529;-67
2021/11/01 02:08:52;;;;;;;28.92;5.30;;;;;;;7.53;100.00;99670.97;5061352;28;20033;-66
2021/11/01 02:11:24;;;;;;;24.38;5.20;;;;;;;7.48;100.00;99673.63;5062097;28;20360;-64
2021/11/01 02:13:53;;;;;;;27.48;5.50;;;;;;;7.52;100.00;99672.75;5062224;28;20040;-66
2021/11/01 02:16:19;;;;;;;26.95;5.25;;;;;;;7.54;100.00;99663.09;5061678;28;20024;-65
2021/11/01 02:18:50;;;;;;;25.23;4.80;;;;;;;7.48;100.00;99664.00;5061747;28;20365;-68
2021/11/01 02:21:23;;;;;;;28.05;5.90;;;;;;;7.45;100.00;99663.13;5062186;28;20083;-68
2021/11/01 02:24:06;;;;;;;24.77;5.30;;;;;;;7.48;100.00;99660.47;5062146;28;20106;-68
2021/11/01 02:26:36;;;;;;;27.45;5.53;;;;;;;7.48;100.00;99656.13;5060477;28;20064;-68
2021/11/01 02:29:04;;;;;;;24.63;5.10;;;;;;;7.51;100.00;99642.06;5060221;28;20032;-68
2021/11/01 02:31:29;;;;;;;26.30;5.13;;;;;;;7.54;100.00;99646.44;5063656;28;20020;-69
2021/11/01 02:33:55;;;;;;;25.77;5.40;;;;;;;7.45;100.00;99650.84;5060661;28;20074;-69
2021/11/01 02:36:21;;;;;;;29.92;5.57;;;;;;;7.47;100.00;99656.09;5063831;28;20052;-68
2021/11/01 02:38:49;;;;;;;24.17;5.18;;;;;;;7.45;100.00;99652.59;5063759;28;20028;-69
2021/11/01 02:41:20;;;;;;;26.35;5.20;;;;;;;7.46;100.00;99657.84;5066155;28;20021;-69
2021/11/01 02:43:51;;;;;;;25.95;5.32;;;;;;;7.41;100.00;99664.88;5063794;28;20074;-68
2021/11/01 02:46:17;;;;;;;28.27;5.60;;;;;;;7.43;100.00;99659.63;5066964;28;20040;-68
2021/11/01 02:48:47;;;;;;;24.85;5.63;;;;;;;7.45;100.00;99671.00;5063259;28;20029;-69
2021/11/01 02:51:13;;;;;;;23.85;5.20;;;;;;;7.38;100.00;99669.25;5063410;28;20021;-68
2021/11/01 02:53:38;;;;;;;23.75;5.45;;;;;;;7.40;100.00;99670.16;5067081;28;20078;-69
2021/11/01 02:56:07;;;;;;;27.25;5.68;;;;;;;7.47;100.00;99671.88;5064267;28;20399;-68
2021/11/01 02:58:32;;;;;;;28.63;5.80;;;;;;;7.43;100.00;99657.84;5065939;28;20032;-69
2021/11/01 03:00:58;;;;;;;28.58;5.88;;;;;;;7.33;100.00;99646.47;5065041;28;20528;-70
2021/11/01 03:03:23;;;;;;;25.52;5.68;;;;;;;7.39;100.00;99650.00;5064642;28;20099;-65
2021/11/01 03:05:49;;;;;;;28.15;5.90;;;;;;;7.38;100.00;99656.13;5066334;28;20025;-65
2021/11/01 03:08:14;;;;;;;27.77;5.70;;;;;;;7.36;100.00;99647.38;5063312;28;20463;-65
2021/11/01 03:10:40;;;;;;;26.90;6.07;;;;;;;7.37;100.00;99650.00;5066407;28;20036;-66
2021/11/01 03:13:05;;;;;;;26.77;5.70;;;;;;;7.41;100.00;99650.84;5063779;28;20037;-68
2021/11/01 03:15:31;;;;;;;28.25;5.93;;;;;;;7.42;100.00;99648.22;5065251;28;20057;-66
2021/11/01 03:18:00;;;;;;;26.00;6.00;;;;;;;7.45;100.00;99652.59;5065007;28;20025;-65
2021/11/01 03:20:30;;;;;;;28.17;6.20;;;;;;;7.50;100.00;99648.22;5064042;28;20044;-66
2021/11/01 03:22:59;;;;;;;26.17;5.80;;;;;;;7.42;100.00;99653.47;5065138;28;20032;-65
2021/11/01 03:25:34;;;;;;;25.30;5.95;;;;;;;7.41;100.00;99656.09;5064297;28;20044;-65
2021/11/01 03:28:04;;;;;;;30.48;6.60;;;;;;;7.49;100.00;99654.34;5062776;28;20039;-66
2021/11/01 03:30:30;;;;;;;24.40;5.70;;;;;;;7.55;100.00;99645.56;5064366;28;20033;-65
2021/11/01 03:32:57;;;;;;;26.98;5.78;;;;;;;7.56;100.00;99629.78;5064794;28;20493;-65
2021/11/01 03:35:25;;;;;;;28.50;5.82;;;;;;;7.56;100.00;99650.81;5063591;28;20095;-65
2021/11/01 03:37:53;;;;;;;29.08;6.55;;;;;;;7.52;100.00;99664.00;5065524;28;20028;-65
2021/11/01 03:40:20;;;;;;;28.00;6.10;;;;;;;7.53;100.00;99652.56;5063176;28;20380;-64
2021/11/01 03:42:47;;;;;;;25.77;6.47;;;;;;;7.52;100.00;99658.72;5065851;28;20030;-65
2021/11/01 03:45:13;;;;;;;27.27;6.25;;;;;;;7.63;100.00;99656.94;5062487;28;20100;-67
2021/11/01 03:47:42;;;;;;;28.10;6.30;;;;;;;7.66;100.00;99656.94;5065658;28;20021;-67
2021/11/01 03:50:34;;;;;;;29.30;6.38;;;;;;;7.70;100.00;99657.81;5062716;28;20025;-67
2021/11/01 03:52:54;;;;;;;26.98;6.20;;;;;;;7.71;100.00;99654.31;5063259;28;20041;-66
2021/11/01 03:55:21;;;;;;;26.80;6.28;;;;;;;7.66;100.00;99660.44;5065015;28;20098;-66
2021/11/01 03:57:48;;;;;;;27.17;6.70;;;;;;;7.68;100.00;99656.03;5062563;28;20047;-66
2021/11/01 04:00:14;;;;;;;29.92;6.78;;;;;;;7.56;100.00;99656.09;5065434;28;20024;-66
2021/11/01 04:02:40;;;;;;;25.73;6.55;;;;;;;7.55;100.00;99658.72;5062340;28;20427;-67
2021/11/01 04:05:06;;;;;;;28.40;6.30;;;;;;;7.57;100.00;99657.84;5064770;28;20510;-65
2021/11/01 04:07:32;;;;;;;29.05;6.30;;;;;;;7.55;100.00;99659.59;5063192;28;20033;-67
2021/11/01 04:10:00;;;;;;;28.02;6.72;;;;;;;7.56;100.00;99668.34;5063446;28;20060;-66
2021/11/01 04:12:25;;;;;;;26.50;6.28;;;;;;;7.54;100.00;99673.59;5064019;28;20032;-66
2021/11/01 04:14:56;;;;;;;25.02;6.20;;;;;;;7.53;100.00;99673.59;5062502;28;20032;-65
2021/11/01 04:22:33;;;;;;;28.20;6.45;;;;;;;7.50;100.00;99656.09;5063435;28;20136;-66
2021/11/01 04:24:59;;;;;;;25.95;6.18;;;;;;;7.46;100.00;99660.47;5063192;28;20112;-67
2021/11/01 04:27:25;;;;;;;28.42;6.60;;;;;;;7.46;100.00;99660.47;5063762;28;20020;-66
2021/11/01 04:29:50;;;;;;;30.33;6.88;;;;;;;7.41;100.00;99661.38;5062105;28;20082;-69
2021/11/01 04:32:25;;;;;;;29.70;6.60;;;;;;;7.51;100.00;99663.09;5064919;28;20037;-69
2021/11/01 04:35:01;;;;;;;29.08;6.40;;;;;;;7.42;100.00;99678.91;5062016;28;20032;-69
2021/11/01 04:37:28;;;;;;;26.00;6.20;;;;;;;7.49;100.00;99671.00;5063359;28;20028;-69
2021/11/01 04:53:18;;;;;;;27.63;6.10;;;;;;;7.44;100.00;99661.34;5061213;28;20564;-69
2021/11/01 04:55:44;;;;;;;27.95;6.07;;;;;;;7.39;100.00;99650.84;5060717;28;20027;-68
2021/11/01 04:58:10;;;;;;;27.35;5.65;;;;;;;7.40;100.00;99646.50;5063067;28;20111;-69
2021/11/01 05:00:36;;;;;;;26.05;6.10;;;;;;;7.40;100.00;99646.50;5061930;28;20031;-69
2021/11/01 05:03:06;;;;;;;27.30;5.68;;;;;;;7.41;100.00;99645.59;5063153;28;20056;-69
2021/11/01 05:05:33;;;;;;;30.45;6.05;;;;;;;7.43;100.00;99651.75;5062467;28;20023;-69
2021/11/01 05:07:59;;;;;;;27.83;5.78;;;;;;;7.47;100.00;99650.81;5062368;28;20468;-68
2021/11/01 05:10:50;;;;;;;28.85;5.85;;;;;;;7.49;100.00;99654.34;5063039;28;20032;-68
2021/11/01 05:13:25;;;;;;;27.17;5.72;;;;;;;7.39;100.00;99652.63;5060742;28;20041;-67
2021/11/01 05:15:56;;;;;;;27.02;5.85;;;;;;;7.39;100.00;99653.47;5061635;28;20025;-66
2021/11/01 05:18:48;;;;;;;30.20;5.73;;;;;;;7.38;100.00;99651.72;5064007;28;20028;-65
2021/11/01 05:21:29;;;;;;;28.08;5.60;;;;;;;7.44;100.00;99641.22;5061343;28;20052;-65
2021/11/01 05:24:00;;;;;;;27.13;5.55;;;;;;;7.37;100.00;99650.00;5062228;28;20025;-68
2021/11/01 05:29:11;;;;;;;27.88;5.70;;;;;;;7.40;100.00;99644.72;5064017;28;20131;-67
2021/11/01 05:31:54;;;;;;;26.95;5.68;;;;;;;7.40;100.00;99638.59;5061631;28;20383;-68
2021/11/01 05:34:20;;;;;;;27.92;5.18;;;;;;;7.32;100.00;99643.84;5061248;28;20021;-66
2021/11/01 05:36:45;;;;;;;27.85;6.30;;;;;;;7.29;100.00;99643.84;5064553;28;20044;-68
2021/11/01 05:39:11;;;;;;;27.88;5.60;;;;;;;7.37;100.00;99638.56;5060823;28;20060;-66
2021/11/01 05:41:37;;;;;;;27.95;5.65;;;;;;;7.39;100.00;99644.72;5063263;28;20026;-68
2021/11/01 05:44:03;;;;;;;29.33;5.50;;;;;;;7.39;100.00;99647.34;5062020;28;20016;-67
2021/11/01 05:46:36;;;;;;;27.60;5.10;;;;;;;7.45;100.00;99648.19;5062141;28;20060;-66
2021/11/01 05:49:07;;;;;;;26.05;5.35;;;;;;;7.48;100.00;99658.75;5061757;28;20028;-64
2021/11/01 05:51:36;;;;;;;25.40;5.43;;;;;;;7.56;100.00;99663.09;5062770;28;20132;-65
2021/11/01 05:54:07;;;;;;;30.25;5.80;;;;;;;7.49;100.00;99675.38;5062289;28;20027;-65
2021/11/01 05:57:14;;;;;;;27.85;5.40;;;;;;;7.49;100.00;99659.59;5062841;28;20036;-65
2021/11/01 06:15:04;;;;;;;24.67;5.25;;;;;;;7.46;100.00;99706.94;5066843;28;20086;-67
2021/11/01 06:17:31;;;;;;;24.98;4.88;;;;;;;7.45;100.00;99715.72;5064350;28;20025;-66
2021/11/01 06:19:57;;;;;;;25.17;5.22;;;;;;;7.49;100.00;99715.69;5073814;28;20499;-66
2021/11/01 06:22:22;;;;;;;25.77;5.18;;;;;;;7.58;100.00;99722.69;5074542;28;20067;-66
2021/11/01 06:24:59;;;;;;;25.80;5.40;;;;;;;7.57;100.00;99714.81;5074282;28;20375;-66
2021/11/01 06:27:25;;;;;;;28.67;5.82;;;;;;;7.51;100.00;99702.53;5074254;28;20024;-66
2021/11/01 06:30:03;;;;;;;29.40;5.57;;;;;;;7.48;100.00;99710.44;5074360;28;20028;-65
2021/11/01 06:33:01;;;;;;;28.48;5.50;;;;;;;7.45;100.00;99711.31;5074474;28;20062;-65
2021/11/01 06:43:58;;;;;;;25.73;5.13;;;;;;;7.53;100.00;99727.09;5072522;28;20039;-65
2021/11/01 06:54:33;;;;;;;29.73;5.63;;;;;;;7.52;100.00;99742.88;5071414;28;20053;-65
2021/11/01 07:15:57;;;;;;;29.13;5.43;;;;;;;7.61;100.00;99759.50;5072094;28;20098;-66
2021/11/01 07:18:32;;;;;;;25.90;4.80;;;;;;;7.62;100.00;99770.94;5073132;28;20024;-66
2021/11/01 07:23:59;;;;;;;28.33;4.95;;;;;;;7.63;100.00;99763.03;5071879;28;20052;-65
2021/11/01 07:30:08;;;;;;;24.75;4.90;;;;;;;7.66;100.00;99763.03;5071351;28;20479;-65
2021/11/01 08:29:23;;;;;;;23.80;4.50;;;;;;;9.24;97.24;99800.19;5049835;28;20565;-64
2021/11/01 08:42:38;;;;;;;23.23;4.20;;;;;;;9.58;91.74;99810.50;5049543;28;20381;-64
2021/11/01 08:48:03;;;;;;;24.17;4.40;;;;;;;9.56;91.68;99816.69;5048457;28;20048;-65
2021/11/01 09:04:12;;;;;;;22.92;4.82;;;;;;;9.55;91.63;99810.53;5024190;28;20045;-64
2021/11/01 09:27:31;;;;;;;21.02;3.70;;;;;;;10.55;84.09;99805.19;5020827;28;20524;-64
2021/11/01 09:43:07;;;;;;;21.50;3.95;;;;;;;11.41;78.13;99804.00;5074194;28;20043;-65
2021/11/01 09:45:36;;;;;;;18.42;3.80;;;;;;;11.57;77.27;99806.41;5075113;28;20420;-64
2021/11/01 09:48:02;;;;;;;19.40;3.60;;;;;;;11.56;76.81;99802.84;5074796;28;20526;-64
2021/11/01 09:50:28;;;;;;;21.15;3.97;;;;;;;11.56;76.14;99802.00;5075172;28;20115;-65
2021/11/01 09:52:57;;;;;;;21.05;3.85;;;;;;;11.40;78.14;99812.84;5074814;28;20099;-65
2021/11/01 09:55:46;;;;;;;21.42;4.05;;;;;;;11.29;76.90;99826.22;5074449;28;20055;-64
2021/11/01 10:00:56;;;;;;;21.65;3.53;;;;;;;10.80;78.53;99826.88;5074810;28;20056;-64
2021/11/01 10:03:42;;;;;;;20.40;3.80;;;;;;;10.84;79.53;99817.16;5074592;28;20056;-64
2021/11/01 10:06:09;;;;;;;20.73;3.90;;;;;;;10.97;78.98;99808.16;5072775;28;20027;-65
2021/11/01 10:08:35;;;;;;;22.60;3.83;;;;;;;11.06;76.76;99818.63;5074800;28;20028;-64
2021/11/01 10:11:01;;;;;;;21.02;3.67;;;;;;;11.43;74.97;99812.78;5074625;28;20033;-65
2021/11/01 10:13:28;;;;;;;18.15;3.63;;;;;;;11.86;73.29;99805.91;5073400;28;20066;-65
2021/11/01 10:18:46;;;;;;;18.63;3.33;;;;;;;12.63;70.74;99817.75;5072938;28;20047;-65
2021/11/01 10:21:15;;;;;;;19.38;3.35;;;;;;;12.88;70.42;99812.78;5074079;28;20063;-63
2021/11/01 10:23:47;;;;;;;22.10;3.42;;;;;;;13.45;68.23;99831.91;5067347;28;20056;-64
2021/11/01 10:26:18;;;;;;;18.20;3.37;;;;;;;13.56;67.32;99819.25;5068741;28;20379;-65
2021/11/01 10:28:49;;;;;;;18.40;3.15;;;;;;;14.01;65.14;99820.81;5067440;28;20294;-64
2021/11/01 10:31:26;;;;;;;19.30;3.53;;;;;;;14.32;64.75;99803.16;5066478;28;20017;-66
2021/11/01 10:34:11;;;;;;;19.67;3.40;;;;;;;14.48;63.07;99802.69;5070259;28;20436;-67
2021/11/01 10:36:39;;;;;;;21.02;3.42;;;;;;;14.37;62.38;99809.22;5070156;28;20075;-66
2021/11/01 10:39:09;;;;;;;18.55;3.20;;;;;;;14.82;60.55;99808.84;5069935;28;20024;-67
2021/11/01 10:41:47;;;;;;;18.80;3.03;;;;;;;14.91;60.75;99807.69;5068385;28;20025;-66
2021/11/01 10:44:34;;;;;;;21.70;3.70;;;;;;;14.21;61.11;99822.94;5068053;28;20029;-64
2021/11/01 11:14:41;;;;;;;18.10;3.53;;;;;;;15.80;55.69;99796.91;5073057;28;20037;-65
2021/11/01 11:17:36;;;;;;;17.23;3.00;;;;;;;15.47;55.59;99794.41;5071902;28;20111;-66
2021/11/01 11:22:40;;;;;;;19.05;2.95;;;;;;;14.75;57.66;99796.63;5071002;28;20033;-66
2021/11/01 11:49:35;;;;;;;17.00;3.25;;;;;;;12.52;64.33;99810.03;5042750;28;20044;-65
2021/11/01 11:52:14;;;;;;;17.65;3.10;;;;;;;12.85;63.58;99801.38;5038863;28;20037;-65
2021/11/01 11:54:44;;;;;;;19.30;3.10;;;;;;;12.95;63.40;99794.13;5042073;28;20108;-65
2021/11/01 11:57:25;;;;;;;14.57;3.00;;;;;;;13.09;62.73;99802.59;5042906;28;20074;-65
2021/11/01 11:59:53;;;;;;;19.88;3.33;;;;;;;13.05;63.66;99803.59;5040557;28;20032;-65
2021/11/01 12:02:39;;;;;;;18.23;3.00;;;;;;;13.03;63.64;99801.00;5042563;28;20025;-65
2021/11/01 12:05:05;;;;;;;16.90;3.33;;;;;;;12.61;63.26;99800.13;5059728;28;20048;-65
2021/11/01 12:07:43;;;;;;;19.35;3.40;;;;;;;12.69;64.88;99791.09;5067077;28;20029;-65
2021/11/01 12:10:19;;;;;;;21.00;3.47;;;;;;;12.52;64.31;99802.06;5071997;28;20061;-65
2021/11/01 12:17:54;;;;;;;14.73;3.15;;;;;;;13.39;61.45;99784.28;5070264;28;20048;-65
2021/11/01 12:20:21;;;;;;;15.43;3.00;;;;;;;13.24;61.69;99781.03;5071532;28;20040;-65
2021/11/01 12:22:50;;;;;;;16.98;3.08;;;;;;;13.73;62.32;99783.44;5072376;28;20427;-65
2021/11/01 12:25:18;;;;;;;20.88;3.45;;;;;;;13.39;62.11;99773.66;5070716;28;20062;-65
2021/11/01 12:27:50;;;;;;;15.75;2.97;;;;;;;14.53;58.90;99780.41;5071739;28;20029;-65
2021/11/01 12:30:20;;;;;;;17.83;3.20;;;;;;;14.36;58.46;99783.53;5071228;28;20128;-65
2021/11/01 12:32:46;;;;;;;16.65;2.90;;;;;;;15.78;56.99;99763.22;5071933;28;20031;-65
2021/11/01 12:35:22;;;;;;;16.75;3.00;;;;;;;16.76;52.17;99768.63;5071545;28;20107;-65
2021/11/01 12:38:06;;;;;;;16.73;2.72;;;;;;;16.92;50.84;99772.50;5067639;28;20054;-65
2021/11/01 12:40:52;;;;;;;14.50;2.90;;;;;;;17.15;49.76;99770.69;5069395;28;20037;-65
2021/11/01 12:56:59;;;;;;;18.23;3.10;;;;;;;17.15;50.48;99765.34;5059512;28;20071;-65
2021/11/01 12:59:50;;;;;;;16.92;3.20;;;;;;;17.96;49.42;99753.13;5062096;28;20074;-65
2021/11/01 13:02:36;;;;;;;17.70;2.95;;;;;;;18.02;45.93;99763.53;5060492;28;20508;-66
2021/11/01 13:05:07;;;;;;;17.38;3.00;;;;;;;17.53;46.54;99752.22;5063048;28;20028;-66
2021/11/01 13:10:22;;;;;;;13.87;2.63;;;;;;;18.05;46.36;99751.84;5062145;28;20464;-66
2021/11/01 13:20:34;;;;;;;15.63;2.80;;;;;;;17.25;47.16;99753.38;5064520;28;20059;-65
2021/11/01 13:23:01;;;;;;;17.95;3.03;;;;;;;16.59;48.69;99756.78;5064789;28;20024;-65
2021/11/01 13:25:42;;;;;;;17.77;3.25;;;;;;;16.19;49.00;99753.81;5064688;28;20032;-66
2021/11/01 13:28:45;;;;;;;18.45;2.97;;;;;;;15.65;51.59;99749.44;5066315;28;20024;-66
2021/11/01 13:37:08;;;;;;;17.83;3.10;;;;;;;15.01;53.70;99755.06;5064950;28;20035;-65
2021/11/01 13:39:35;;;;;;;18.42;3.13;;;;;;;14.77;53.53;99749.59;5067595;28;20413;-68
2021/11/01 13:42:00;;;;;;;17.42;3.20;;;;;;;14.08;56.06;99752.41;5064408;28;21016;-66
2021/11/01 13:44:27;;;;;;;17.42;3.05;;;;;;;13.73;58.13;99764.84;5065196;28;20036;-68
2021/11/01 13:47:00;;;;;;;17.13;3.10;;;;;;;13.58;58.55;99764.31;5064347;28;20029;-66
2021/11/01 13:49:29;;;;;;;17.83;3.00;;;;;;;13.34;60.22;99754.28;5066977;28;20147;-67
2021/11/01 13:52:07;;;;;;;19.58;3.30;;;;;;;13.60;60.07;99746.59;5063338;28;20016;-67
2021/11/01 13:54:38;;;;;;;18.90;3.10;;;;;;;14.02;57.68;99755.22;5066108;28;20600;-65
2021/11/01 13:57:05;;;;;;;16.38;2.90;;;;;;;13.66;58.29;99752.63;5066773;28;20027;-66
2021/11/01 15:00:19;;;;;;;16.65;3.30;;;;;;;14.89;55.55;99725.25;4914584;29;20036;-65
2021/11/01 15:10:59;;;;;;;16.05;3.10;;;;;;;15.50;53.60;99721.53;4901061;29;20421;-63
2021/11/01 15:19:03;;;;;;;14.10;2.75;;;;;;;14.78;53.76;99730.03;4969785;28;20069;-66
2021/11/01 16:17:59;;;;;;;11.88;2.60;;;;;;;10.57;75.12;99798.09;5062356;28;20032;-67
2021/11/01 16:20:13;;;;;;;10.88;2.72;;;;;;;9.89;83.83;99814.66;5062909;28;20040;-66
2021/11/01 16:22:42;;;;;;;14.02;2.90;;;;;;;9.11;100.00;99824.03;5064186;28;20085;-66
2021/11/01 16:25:08;;;;;;;12.45;2.95;;;;;;;8.50;100.00;99818.16;5062137;28;20029;-66
2021/11/01 16:27:34;;;;;;;10.25;2.88;;;;;;;8.16;100.00;99807.69;5065116;28;20360;-66
2021/11/01 16:32:42;;;;;;;9.88;3.10;;;;;;;7.79;100.00;99805.09;5064905;28;20107;-67
2021/11/01 16:35:08;;;;;;;14.35;3.50;;;;;;;7.75;100.00;99798.13;5062227;28;20032;-67
2021/11/01 16:37:39;;;;;;;14.73;3.45;;;;;;;7.81;100.00;99793.69;5065395;28;20031;-66
2021/11/01 16:40:08;;;;;;;11.38;3.20;;;;;;;7.74;100.00;99799.84;5061340;28;20039;-67
2021/11/01 16:42:38;;;;;;;12.52;3.22;;;;;;;7.65;100.00;99787.56;5064775;28;20534;-66
2021/11/01 16:47:41;;;;;;;13.73;3.50;;;;;;;7.55;100.00;99787.59;5064664;28;20029;-66
2021/11/01 16:50:10;;;;;;;12.88;3.53;;;;;;;7.57;100.00;99783.19;5061687;28;20033;-66
2021/11/01 16:52:36;;;;;;;13.88;3.40;;;;;;;7.61;100.00;99774.44;5063770;28;20132;-67
2021/11/01 16:55:04;;;;;;;14.35;3.53;;;;;;;7.71;100.00;99783.19;5061615;28;20487;-66
2021/11/01 16:57:40;;;;;;;17.35;4.20;;;;;;;7.84;100.00;99782.31;5061288;28;20025;-67
2021/11/01 17:10:58;;;;;;;19.35;5.78;;;;;;;7.98;100.00;99788.44;5062421;28;20474;-65
2021/11/01 18:38:34;;;;;;;20.90;7.82;;;;;;;7.41;100.00;99858.56;5005990;28;20049;-66
2021/11/01 18:44:01;;;;;;;21.77;8.80;;;;;;;7.48;100.00;99866.50;5002319;28;20062;-65
2021/11/01 18:51:54;;;;;;;22.38;9.88;;;;;;;7.45;100.00;99868.22;5003531;28;20041;-66
2021/11/01 18:54:27;;;;;;;23.23;8.88;;;;;;;7.54;100.00;99862.97;5003233;28;20061;-67
2021/11/01 18:56:56;;;;;;;21.80;8.50;;;;;;;7.47;100.00;99863.84;5004264;28;20050;-67
2021/11/01 18:59:25;;;;;;;21.90;8.20;;;;;;;7.54;100.00;99864.72;5002817;28;20038;-66
2021/11/01 19:04:48;;;;;;;21.52;8.43;;;;;;;7.60;100.00;99867.34;5024681;28;20038;-67
2021/11/01 19:07:28;;;;;;;21.45;8.48;;;;;;;7.60;100.00;99862.09;5028460;28;20060;-67
2021/11/01 20:04:57;;;;;;;25.13;10.18;;;;;;;6.92;100.00;99872.47;5062726;28;20070;-67
2021/11/01 20:13:00;;;;;;;25.45;10.35;;;;;;;6.80;100.00;99870.66;5063283;28;20131;-66
2021/11/01 21:27:15;;;;;;;36.65;18.75;;;;;;;6.24;100.00;99867.72;5063365;28;20032;-66
2021/11/01 21:29:41;;;;;;;38.50;20.00;;;;;;;6.25;100.00;99866.88;5061358;28;20040;-66
2021/11/01 21:32:07;;;;;;;36.40;18.52;;;;;;;6.26;100.00;99862.50;5064012;28;20028;-67
2021/11/01 21:34:35;;;;;;;36.65;17.33;;;;;;;6.21;100.00;99862.47;5061157;28;20043;-66
2021/11/01 21:37:02;;;;;;;38.50;18.55;;;;;;;6.20;100.00;99860.72;5064203;28;20025;-66
2021/11/01 21:39:28;;;;;;;34.97;17.17;;;;;;;6.19;100.00;99851.09;5065398;28;20548;-66
2021/11/01 21:41:55;;;;;;;35.17;17.23;;;;;;;6.15;100.00;99851.94;5067718;28;20164;-67
2021/11/01 21:44:21;;;;;;;33.83;16.67;;;;;;;6.11;100.00;99852.78;5066482;28;20352;-67
2021/11/01 21:46:47;;;;;;;36.42;17.60;;;;;;;6.03;100.00;99858.00;5066289;28;20021;-67
2021/11/01 21:49:12;;;;;;;35.15;17.88;;;;;;;6.01;100.00;99849.22;5067451;28;20032;-67
2021/11/01 21:51:39;;;;;;;36.13;17.05;;;;;;;6.06;100.00;99849.28;5065022;28;20032;-66
2021/11/01 21:56:42;;;;;;;33.22;16.88;;;;;;;5.98;100.00;99846.56;5065476;28;20029;-66
2021/11/01 22:18:03;;;;;;;27.40;11.75;;;;;;;5.80;100.00;99834.16;5065971;28;20062;-66
2021/11/01 22:20:29;;;;;;;30.15;11.45;;;;;;;5.78;100.00;99830.63;5064287;28;20089;-66
2021/11/01 22:23:04;;;;;;;27.27;11.10;;;;;;;5.74;100.00;99829.75;5064812;28;20025;-65
2021/11/01 22:25:43;;;;;;;26.70;11.23;;;;;;;5.69;100.00;99826.19;5065916;28;20605;-66
2021/11/01 22:34:20;;;;;;;29.65;11.55;;;;;;;5.59;100.00;99832.25;5064573;28;20035;-65
2021/11/01 22:39:26;;;;;;;28.05;10.90;;;;;;;5.54;100.00;99831.34;5066981;28;20506;-65
2021/11/01 22:55:37;;;;;;;27.25;11.38;;;;;;;5.44;100.00;99827.75;5042543;28;20638;-65
2021/11/01 22:58:03;;;;;;;28.83;12.05;;;;;;;5.48;100.00;99832.16;5042428;28;20455;-65
2021/11/01 23:00:39;;;;;;;27.13;11.27;;;;;;;5.45;100.00;99826.88;5042752;28;20029;-65
2021/11/01 23:03:42;;;;;;;27.50;11.32;;;;;;;5.46;100.00;99828.66;5042325;28;20024;-66
2021/11/01 23:06:14;;;;;;;29.65;11.07;;;;;;;5.39;100.00;99830.34;5040510;28;20074;-66
2021/11/01 23:33:21;;;;;;;28.17;11.25;;;;;;;5.13;100.00;99830.06;5062795;28;20518;-66
2021/11/01 23:35:48;;;;;;;31.13;11.27;;;;;;;5.15;100.00;99827.47;5066232;28;20036;-66
2021/11/01 23:38:13;;;;;;;30.40;11.43;;;;;;;5.17;100.00;99831.88;5061130;28;20092;-66
2021/11/01 23:40:38;;;;;;;29.52;11.50;;;;;;;5.21;100.00;99822.28;5064939;28;20128;-66
2021/11/01 23:43:06;;;;;;;29.63;11.05;;;;;;;5.22;100.00;99824.91;5062522;28;20032;-66
2021/11/01 23:45:36;;;;;;;28.15;10.77;;;;;;;5.22;100.00;99824.06;5064750;28;20017;-66
2021/11/01 23:48:01;;;;;;;29.00;11.30;;;;;;;5.18;100.00;99828.38;5064261;28;20126;-65
2021/11/01 23:50:29;;;;;;;29.65;11.23;;;;;;;5.07;100.00;99819.53;5064831;28;20028;-66
2021/11/01 23:53:03;;;;;;;28.85;11.48;;;;;;;5.03;100.00;99823.84;5063437;28;20029;-65
2021/11/01 23:55:29;;;;;;;27.50;10.73;;;;;;;5.05;100.00;99821.25;5064400;28;20032;-65